sensor_id;sensor_type;location;lat;lon;timestamp;pressure;altitude;pressure_sealevel;temperature;humidity
73085;BME280;62974;49.460;10.892;2022-10-17T00:02:13;98422.97;;;13.68;92.95
73085;BME280;62974;49.460;10.892;2022-10-17T00:04:40;98430.38;;;12.99;95.42
73085;BME280;62974;49.460;10.892;2022-10-17T00:07:08;98428.09;;;13.37;94.58
73085;BME280;62974;49.460;10.892;2022-10-17T00:09:35;98425.75;;;13.27;94.30
73085;BME280;62974;49.460;10.892;2022-10-17T00:12:03;98424.09;;;13.26;95.22
73085;BME280;62974;49.460;10.892;2022-10-17T00:14:30;98426.22;;;12.96;95.96
73085;BME280;62974;49.460;10.892;2022-10-17T00:16:57;98426.22;;;12.90;96.38
73085;BME280;62974;49.460;10.892;2022-10-17T00:19:26;98425.16;;;13.32;94.78
73085;BME280;62974;49.460;10.892;2022-10-17T00:21:53;98424.97;;;13.33;94.50
73085;BME280;62974;49.460;10.892;2022-10-17T00:24:21;98432.19;;;13.26;95.36
73085;BME280;62974;49.460;10.892;2022-10-17T00:26:48;98424.06;;;13.13;93.98
73085;BME280;62974;49.460;10.892;2022-10-17T00:29:15;98428.69;;;13.26;94.75
73085;BME280;62974;49.460;10.892;2022-10-17T00:31:43;98429.63;;;13.11;96.07
73085;BME280;62974;49.460;10.892;2022-10-17T00:34:10;98433.88;;;13.34;94.50
73085;BME280;62974;49.460;10.892;2022-10-17T00:36:39;98431.44;;;13.52;92.81
73085;BME280;62974;49.460;10.892;2022-10-17T00:39:07;98435.75;;;13.33;94.06
73085;BME280;62974;49.460;10.892;2022-10-17T00:41:35;98435.56;;;13.41;93.51
73085;BME280;62974;49.460;10.892;2022-10-17T00:44:03;98438.91;;;13.50;92.44
73085;BME280;62974;49.460;10.892;2022-10-17T00:46:32;98438.28;;;13.48;92.17
73085;BME280;62974;49.460;10.892;2022-10-17T00:49:00;98431.81;;;13.36;91.18
73085;BME280;62974;49.460;10.892;2022-10-17T00:51:29;98429.59;;;13.52;92.53
73085;BME280;62974;49.460;10.892;2022-10-17T00:54:01;98432.69;;;13.56;91.61
73085;BME280;62974;49.460;10.892;2022-10-17T00:56:29;98434.16;;;13.52;91.62
73085;BME280;62974;49.460;10.892;2022-10-17T00:58:56;98432.06;;;13.54;91.63
73085;BME280;62974;49.460;10.892;2022-10-17T01:01:24;98431.84;;;13.49;91.68
73085;BME280;62974;49.460;10.892;2022-10-17T01:03:51;98433.72;;;13.48;92.01
73085;BME280;62974;49.460;10.892;2022-10-17T01:06:19;98436.84;;;13.45;91.57
73085;BME280;62974;49.460;10.892;2022-10-17T01:08:46;98426.66;;;13.47;91.34
73085;BME280;62974;49.460;10.892;2022-10-17T01:11:19;98429.34;;;13.47;91.08
73085;BME280;62974;49.460;10.892;2022-10-17T01:13:50;98442.84;;;13.47;91.07
73085;BME280;62974;49.460;10.892;2022-10-17T01:16:20;98435.16;;;13.44;91.24
73085;BME280;62974;49.460;10.892;2022-10-17T01:18:55;98439.72;;;13.44;91.11
73085;BME280;62974;49.460;10.892;2022-10-17T01:21:31;98446.75;;;13.32;91.04
73085;BME280;62974;49.460;10.892;2022-10-17T01:24:02;98442.38;;;13.31;91.85
73085;BME280;62974;49.460;10.892;2022-10-17T01:26:41;98445.28;;;13.36;91.04
73085;BME280;62974;49.460;10.892;2022-10-17T01:29:15;98444.66;;;13.34;90.89
73085;BME280;62974;49.460;10.892;2022-10-17T01:31:46;98442.34;;;13.24;90.73
73085;BME280;62974;49.460;10.892;2022-10-17T01:34:15;98436.56;;;13.27;91.06
73085;BME280;62974;49.460;10.892;2022-10-17T01:36:47;98438.41;;;13.27;91.26
73085;BME280;62974;49.460;10.892;2022-10-17T01:39:19;98437.56;;;13.26;90.89
73085;BME280;62974;49.460;10.892;2022-10-17T01:41:55;98435.72;;;13.27;90.79
73085;BME280;62974;49.460;10.892;2022-10-17T01:44:26;98440.91;;;13.22;91.05
73085;BME280;62974;49.460;10.892;2022-10-17T01:46:57;98445.03;;;13.18;91.22
73085;BME280;62974;49.460;10.892;2022-10-17T01:49:26;98442.34;;;13.18;91.08
73085;BME280;62974;49.460;10.892;2022-10-17T01:51:56;98449.16;;;13.13;91.09
73085;BME280;62974;49.460;10.892;2022-10-17T01:54:26;98441.88;;;13.14;91.48
73085;BME280;62974;49.460;10.892;2022-10-17T01:56:57;98439.41;;;13.12;90.85
73085;BME280;62974;49.460;10.892;2022-10-17T01:59:27;98441.44;;;13.10;90.83
73085;BME280;62974;49.460;10.892;2022-10-17T02:01:57;98444.97;;;13.11;90.91
73085;BME280;62974;49.460;10.892;2022-10-17T02:04:25;98435.41;;;13.08;90.77
73085;BME280;62974;49.460;10.892;2022-10-17T02:06:53;98434.56;;;13.08;90.59
73085;BME280;62974;49.460;10.892;2022-10-17T02:09:21;98431.69;;;13.09;90.59
73085;BME280;62974;49.460;10.892;2022-10-17T02:11:51;98433.31;;;13.04;90.48
73085;BME280;62974;49.460;10.892;2022-10-17T02:14:24;98436.19;;;13.02;90.33
73085;BME280;62974;49.460;10.892;2022-10-17T02:16:58;98432.22;;;12.98;90.31
73085;BME280;62974;49.460;10.892;2022-10-17T02:19:38;98432.22;;;12.98;90.18
73085;BME280;62974;49.460;10.892;2022-10-17T02:22:15;98432.03;;;13.00;90.54
73085;BME280;62974;49.460;10.892;2022-10-17T02:24:46;98427.47;;;12.94;89.99
73085;BME280;62974;49.460;10.892;2022-10-17T02:27:15;98426.00;;;12.91;90.15
73085;BME280;62974;49.460;10.892;2022-10-17T02:29:45;98422.28;;;12.92;90.14
73085;BME280;62974;49.460;10.892;2022-10-17T02:32:15;98426.81;;;12.92;89.76
73085;BME280;62974;49.460;10.892;2022-10-17T02:34:45;98419.97;;;12.89;90.36
73085;BME280;62974;49.460;10.892;2022-10-17T02:37:14;98418.72;;;12.92;90.08
73085;BME280;62974;49.460;10.892;2022-10-17T02:39:42;98422.69;;;12.89;90.01
73085;BME280;62974;49.460;10.892;2022-10-17T02:42:10;98422.03;;;12.87;89.92
73085;BME280;62974;49.460;10.892;2022-10-17T02:44:40;98428.44;;;12.86;89.59
73085;BME280;62974;49.460;10.892;2022-10-17T02:47:10;98432.38;;;12.84;89.83
73085;BME280;62974;49.460;10.892;2022-10-17T02:49:40;98429.66;;;12.77;90.32
73085;BME280;62974;49.460;10.892;2022-10-17T02:52:11;98428.81;;;12.77;89.85
73085;BME280;62974;49.460;10.892;2022-10-17T02:54:40;98424.88;;;12.79;89.81
73085;BME280;62974;49.460;10.892;2022-10-17T02:57:09;98430.44;;;12.71;90.16
73085;BME280;62974;49.460;10.892;2022-10-17T02:59:38;98439.34;;;12.71;89.60
73085;BME280;62974;49.460;10.892;2022-10-17T03:02:07;98438.53;;;12.71;89.75
73085;BME280;62974;49.460;10.892;2022-10-17T03:04:34;98450.53;;;12.68;89.80
73085;BME280;62974;49.460;10.892;2022-10-17T03:07:03;98447.44;;;12.71;89.87
73085;BME280;62974;49.460;10.892;2022-10-17T03:09:30;98452.59;;;12.66;89.68
73085;BME280;62974;49.460;10.892;2022-10-17T03:11:57;98448.28;;;12.72;89.83
73085;BME280;62974;49.460;10.892;2022-10-17T03:14:25;98454.06;;;12.69;89.57
73085;BME280;62974;49.460;10.892;2022-10-17T03:16:52;98457.59;;;12.69;89.61
73085;BME280;62974;49.460;10.892;2022-10-17T03:19:20;98457.22;;;12.79;89.19
73085;BME280;62974;49.460;10.892;2022-10-17T03:21:47;98468.41;;;12.76;89.25
73085;BME280;62974;49.460;10.892;2022-10-17T03:24:16;98460.47;;;12.68;89.16
73085;BME280;62974;49.460;10.892;2022-10-17T03:26:44;98464.59;;;12.64;89.25
73085;BME280;62974;49.460;10.892;2022-10-17T03:29:16;98462.31;;;12.61;89.48
73085;BME280;62974;49.460;10.892;2022-10-17T03:31:43;98465.84;;;12.61;89.46
73085;BME280;62974;49.460;10.892;2022-10-17T03:34:11;98469.31;;;12.55;89.74
73085;BME280;62974;49.460;10.892;2022-10-17T03:36:38;98469.31;;;12.55;89.82
73085;BME280;62974;49.460;10.892;2022-10-17T03:39:05;98472.00;;;12.55;89.71
73085;BME280;62974;49.460;10.892;2022-10-17T03:41:34;98473.50;;;12.58;89.46
73085;BME280;62974;49.460;10.892;2022-10-17T03:44:01;98479.66;;;12.52;89.17
73085;BME280;62974;49.460;10.892;2022-10-17T03:46:29;98480.91;;;12.56;89.30
73085;BME280;62974;49.460;10.892;2022-10-17T03:48:56;98480.88;;;12.49;89.18
73085;BME280;62974;49.460;10.892;2022-10-17T03:51:23;98485.03;;;12.52;89.44
73085;BME280;62974;49.460;10.892;2022-10-17T03:53:51;98479.81;;;12.50;89.43
73085;BME280;62974;49.460;10.892;2022-10-17T03:56:19;98482.72;;;12.49;89.61
73085;BME280;62974;49.460;10.892;2022-10-17T03:58:48;98494.09;;;12.44;89.52
73085;BME280;62974;49.460;10.892;2022-10-17T04:01:16;98493.25;;;12.44;89.40
73085;BME280;62974;49.460;10.892;2022-10-17T04:03:47;98495.94;;;12.44;89.28
73085;BME280;62974;49.460;10.892;2022-10-17T04:06:14;98502.19;;;12.44;89.20
73085;BME280;62974;49.460;10.892;2022-10-17T04:08:42;98491.59;;;12.43;89.35
73085;BME280;62974;49.460;10.892;2022-10-17T04:11:10;98500.47;;;12.37;89.38
73085;BME280;62974;49.460;10.892;2022-10-17T04:13:39;98507.69;;;12.36;89.64
73085;BME280;62974;49.460;10.892;2022-10-17T04:16:09;98508.97;;;12.40;89.31
73085;BME280;62974;49.460;10.892;2022-10-17T04:18:37;98499.66;;;12.43;89.01
73085;BME280;62974;49.460;10.892;2022-10-17T04:21:05;98505.63;;;12.38;89.01
73085;BME280;62974;49.460;10.892;2022-10-17T04:23:33;98499.81;;;12.35;89.11
73085;BME280;62974;49.460;10.892;2022-10-17T04:26:01;98506.47;;;12.39;89.40
73085;BME280;62974;49.460;10.892;2022-10-17T04:28:29;98502.75;;;12.40;88.97
73085;BME280;62974;49.460;10.892;2022-10-17T04:30:57;98501.47;;;12.36;89.19
73085;BME280;62974;49.460;10.892;2022-10-17T04:33:26;98508.47;;;12.30;89.20
73085;BME280;62974;49.460;10.892;2022-10-17T04:35:54;98505.16;;;12.28;89.40
73085;BME280;62974;49.460;10.892;2022-10-17T04:38:22;98504.31;;;12.28;89.37
73085;BME280;62974;49.460;10.892;2022-10-17T04:40:55;98508.63;;;12.22;89.02
73085;BME280;62974;49.460;10.892;2022-10-17T04:43:22;98511.75;;;12.26;89.32
73085;BME280;62974;49.460;10.892;2022-10-17T04:45:50;98503.88;;;12.24;89.18
73085;BME280;62974;49.460;10.892;2022-10-17T04:48:17;98513.34;;;12.20;89.25
73085;BME280;62974;49.460;10.892;2022-10-17T04:50:53;98517.72;;;12.21;89.36
73085;BME280;62974;49.460;10.892;2022-10-17T04:53:21;98511.50;;;12.20;89.31
73085;BME280;62974;49.460;10.892;2022-10-17T04:55:48;98518.13;;;12.18;89.45
73085;BME280;62974;49.460;10.892;2022-10-17T04:58:19;98518.03;;;12.11;89.46
73085;BME280;62974;49.460;10.892;2022-10-17T05:00:46;98514.13;;;12.14;89.42
73085;BME280;62974;49.460;10.892;2022-10-17T05:03:14;98515.56;;;12.10;89.29
73085;BME280;62974;49.460;10.892;2022-10-17T05:05:41;98522.41;;;12.12;89.60
73085;BME280;62974;49.460;10.892;2022-10-17T05:08:10;98522.22;;;12.14;89.31
73085;BME280;62974;49.460;10.892;2022-10-17T05:10:38;98518.25;;;12.10;89.20
73085;BME280;62974;49.460;10.892;2022-10-17T05:13:06;98514.31;;;12.12;89.42
73085;BME280;62974;49.460;10.892;2022-10-17T05:15:33;98523.63;;;12.10;89.23
73085;BME280;62974;49.460;10.892;2022-10-17T05:18:01;98522.41;;;12.12;89.09
73085;BME280;62974;49.460;10.892;2022-10-17T05:20:28;98530.47;;;12.12;89.37
73085;BME280;62974;49.460;10.892;2022-10-17T05:22:57;98530.22;;;12.07;89.33
73085;BME280;62974;49.460;10.892;2022-10-17T05:25:25;98525.41;;;12.03;89.52
73085;BME280;62974;49.460;10.892;2022-10-17T05:27:53;98531.06;;;12.08;89.38
73085;BME280;62974;49.460;10.892;2022-10-17T05:30:20;98528.34;;;12.08;89.20
73085;BME280;62974;49.460;10.892;2022-10-17T05:32:50;98525.84;;;12.06;89.01
73085;BME280;62974;49.460;10.892;2022-10-17T05:35:18;98529.13;;;12.02;89.10
73085;BME280;62974;49.460;10.892;2022-10-17T05:37:45;98528.19;;;12.09;88.97
73085;BME280;62974;49.460;10.892;2022-10-17T05:40:13;98528.34;;;12.08;88.97
73085;BME280;62974;49.460;10.892;2022-10-17T05:42:45;98527.06;;;12.04;88.96
73085;BME280;62974;49.460;10.892;2022-10-17T05:45:13;98529.50;;;11.99;89.20
73085;BME280;62974;49.460;10.892;2022-10-17T05:47:40;98528.22;;;11.95;89.47
73085;BME280;62974;49.460;10.892;2022-10-17T05:50:08;98527.03;;;11.97;89.33
73085;BME280;62974;49.460;10.892;2022-10-17T05:55:37;98537.56;;;11.99;89.07
73085;BME280;62974;49.460;10.892;2022-10-17T05:58:06;98535.53;;;12.01;88.63
73085;BME280;62974;49.460;10.892;2022-10-17T06:00:36;98541.31;;;11.98;88.97
73085;BME280;62974;49.460;10.892;2022-10-17T06:03:18;98535.94;;;11.98;89.01
73085;BME280;62974;49.460;10.892;2022-10-17T06:05:45;98549.75;;;11.95;89.05
73085;BME280;62974;49.460;10.892;2022-10-17T06:08:13;98544.63;;;12.00;88.94
73085;BME280;62974;49.460;10.892;2022-10-17T06:10:40;98554.13;;;11.96;88.82
73085;BME280;62974;49.460;10.892;2022-10-17T06:13:09;98566.72;;;11.95;88.94
73085;BME280;62974;49.460;10.892;2022-10-17T06:15:36;98570.53;;;12.01;89.13
73085;BME280;62974;49.460;10.892;2022-10-17T06:18:03;98568.03;;;11.99;88.88
73085;BME280;62974;49.460;10.892;2022-10-17T06:20:31;98560.78;;;12.00;88.98
73085;BME280;62974;49.460;10.892;2022-10-17T06:22:58;98560.84;;;12.06;88.56
73085;BME280;62974;49.460;10.892;2022-10-17T06:25:25;98558.91;;;11.64;91.91
73085;BME280;62974;49.460;10.892;2022-10-17T06:27:54;98563.34;;;12.08;89.22
73085;BME280;62974;49.460;10.892;2022-10-17T06:30:22;98569.63;;;12.15;88.74
73085;BME280;62974;49.460;10.892;2022-10-17T06:32:50;98567.06;;;12.07;89.63
73085;BME280;62974;49.460;10.892;2022-10-17T06:35:19;98570.03;;;12.12;89.13
73085;BME280;62974;49.460;10.892;2022-10-17T06:37:46;98580.53;;;12.07;90.46
73085;BME280;62974;49.460;10.892;2022-10-17T06:40:14;98581.25;;;11.65;93.80
73085;BME280;62974;49.460;10.892;2022-10-17T06:42:42;98585.34;;;11.90;93.18
73085;BME280;62974;49.460;10.892;2022-10-17T06:45:10;98585.34;;;11.90;93.81
73085;BME280;62974;49.460;10.892;2022-10-17T06:47:38;98582.31;;;12.00;92.77
73085;BME280;62974;49.460;10.892;2022-10-17T06:50:06;98593.41;;;11.90;95.86
73085;BME280;62974;49.460;10.892;2022-10-17T06:52:33;98596.22;;;12.03;94.60
73085;BME280;62974;49.460;10.892;2022-10-17T06:55:01;98597.97;;;12.11;94.51
73085;BME280;62974;49.460;10.892;2022-10-17T06:57:28;98597.81;;;12.34;91.27
73085;BME280;62974;49.460;10.892;2022-10-17T06:59:56;98605.69;;;12.14;96.10
73085;BME280;62974;49.460;10.892;2022-10-17T07:02:23;98612.09;;;12.13;95.29
73085;BME280;62974;49.460;10.892;2022-10-17T07:04:52;98614.84;;;12.19;94.38
73085;BME280;62974;49.460;10.892;2022-10-17T07:07:21;98612.94;;;12.13;96.04
73085;BME280;62974;49.460;10.892;2022-10-17T07:09:49;98617.91;;;12.16;96.49
73085;BME280;62974;49.460;10.892;2022-10-17T07:12:17;98622.28;;;12.17;98.14
73085;BME280;62974;49.460;10.892;2022-10-17T07:14:44;98618.75;;;12.17;100.00
73085;BME280;62974;49.460;10.892;2022-10-17T07:17:12;98615.13;;;12.24;99.24
73085;BME280;62974;49.460;10.892;2022-10-17T07:19:39;98619.28;;;12.27;100.00
73085;BME280;62974;49.460;10.892;2022-10-17T07:22:10;98610.63;;;12.32;97.86
73085;BME280;62974;49.460;10.892;2022-10-17T07:24:37;98607.44;;;12.21;100.00
73085;BME280;62974;49.460;10.892;2022-10-17T07:27:05;98613.56;;;12.15;100.00
73085;BME280;62974;49.460;10.892;2022-10-17T07:29:32;98621.22;;;12.33;100.00
73085;BME280;62974;49.460;10.892;2022-10-17T07:32:00;98632.03;;;12.40;100.00
73085;BME280;62974;49.460;10.892;2022-10-17T07:34:29;98627.06;;;12.37;100.00
73085;BME280;62974;49.460;10.892;2022-10-17T07:36:56;98621.81;;;12.50;100.00
73085;BME280;62974;49.460;10.892;2022-10-17T07:39:25;98626.97;;;12.51;100.00
73085;BME280;62974;49.460;10.892;2022-10-17T07:41:52;98628.50;;;12.39;100.00
73085;BME280;62974;49.460;10.892;2022-10-17T07:44:20;98631.84;;;12.62;100.00
73085;BME280;62974;49.460;10.892;2022-10-17T07:46:47;98633.78;;;12.47;100.00
73085;BME280;62974;49.460;10.892;2022-10-17T07:49:15;98638.03;;;12.56;100.00
73085;BME280;62974;49.460;10.892;2022-10-17T07:51:42;98640.00;;;12.69;100.00
73085;BME280;62974;49.460;10.892;2022-10-17T07:54:10;98643.03;;;12.81;100.00
73085;BME280;62974;49.460;10.892;2022-10-17T07:56:38;98636.22;;;12.85;100.00
73085;BME280;62974;49.460;10.892;2022-10-17T07:59:06;98630.56;;;12.80;100.00
73085;BME280;62974;49.460;10.892;2022-10-17T08:01:34;98625.34;;;12.78;100.00
73085;BME280;62974;49.460;10.892;2022-10-17T08:04:03;98632.88;;;12.83;100.00
73085;BME280;62974;49.460;10.892;2022-10-17T08:06:30;98629.00;;;13.13;100.00
73085;BME280;62974;49.460;10.892;2022-10-17T08:08:57;98632.91;;;13.10;100.00
73085;BME280;62974;49.460;10.892;2022-10-17T08:11:26;98642.72;;;13.18;100.00
73085;BME280;62974;49.460;10.892;2022-10-17T08:13:55;98630.50;;;13.22;100.00
73085;BME280;62974;49.460;10.892;2022-10-17T08:16:22;98635.38;;;13.33;100.00
73085;BME280;62974;49.460;10.892;2022-10-17T08:18:50;98637.41;;;13.25;100.00
73085;BME280;62974;49.460;10.892;2022-10-17T08:21:17;98635.50;;;13.53;100.00
73085;BME280;62974;49.460;10.892;2022-10-17T08:23:44;98638.72;;;13.42;100.00
73085;BME280;62974;49.460;10.892;2022-10-17T08:26:12;98638.09;;;13.74;100.00
73085;BME280;62974;49.460;10.892;2022-10-17T08:28:42;98647.22;;;13.39;100.00
73085;BME280;62974;49.460;10.892;2022-10-17T08:31:11;98645.22;;;13.47;100.00
73085;BME280;62974;49.460;10.892;2022-10-17T08:33:39;98642.91;;;13.79;100.00
73085;BME280;62974;49.460;10.892;2022-10-17T08:36:07;98638.19;;;13.94;100.00
73085;BME280;62974;49.460;10.892;2022-10-17T08:38:35;98628.66;;;13.98;100.00
73085;BME280;62974;49.460;10.892;2022-10-17T08:41:26;98625.34;;;14.02;100.00
73085;BME280;62974;49.460;10.892;2022-10-17T08:44:01;98619.53;;;14.05;100.00
73085;BME280;62974;49.460;10.892;2022-10-17T08:46:31;98616.94;;;14.32;100.00
73085;BME280;62974;49.460;10.892;2022-10-17T08:49:00;98610.38;;;14.00;100.00
73085;BME280;62974;49.460;10.892;2022-10-17T08:51:29;98624.03;;;14.39;100.00
73085;BME280;62974;49.460;10.892;2022-10-17T08:54:00;98615.66;;;14.21;100.00
73085;BME280;62974;49.460;10.892;2022-10-17T08:56:32;98616.59;;;14.54;100.00
73085;BME280;62974;49.460;10.892;2022-10-17T08:59:16;98621.69;;;14.23;100.00
73085;BME280;62974;49.460;10.892;2022-10-17T09:01:47;98622.59;;;14.43;100.00
73085;BME280;62974;49.460;10.892;2022-10-17T09:04:29;98619.72;;;14.58;100.00
73085;BME280;62974;49.460;10.892;2022-10-17T09:07:00;98624.31;;;14.84;100.00
73085;BME280;62974;49.460;10.892;2022-10-17T09:09:33;98623.06;;;14.93;100.00
73085;BME280;62974;49.460;10.892;2022-10-17T09:12:04;98629.31;;;14.80;100.00
73085;BME280;62974;49.460;10.892;2022-10-17T09:14:48;98629.94;;;15.09;100.00
73085;BME280;62974;49.460;10.892;2022-10-17T09:17:23;98623.88;;;14.67;100.00
73085;BME280;62974;49.460;10.892;2022-10-17T09:19:56;98623.69;;;15.15;100.00
73085;BME280;62974;49.460;10.892;2022-10-17T09:22:26;98617.63;;;15.39;100.00
73085;BME280;62974;49.460;10.892;2022-10-17T09:24:55;98621.00;;;14.95;100.00
73085;BME280;62974;49.460;10.892;2022-10-17T09:27:24;98619.88;;;15.62;100.00
73085;BME280;62974;49.460;10.892;2022-10-17T09:29:53;98624.09;;;14.98;100.00
73085;BME280;62974;49.460;10.892;2022-10-17T09:32:23;98618.94;;;15.94;100.00
73085;BME280;62974;49.460;10.892;2022-10-17T09:34:51;98613.22;;;15.58;100.00
73085;BME280;62974;49.460;10.892;2022-10-17T09:37:23;98615.78;;;15.13;100.00
73085;BME280;62974;49.460;10.892;2022-10-17T09:39:54;98613.03;;;15.46;100.00
73085;BME280;62974;49.460;10.892;2022-10-17T09:42:21;98618.75;;;15.89;100.00
73085;BME280;62974;49.460;10.892;2022-10-17T09:44:51;98622.91;;;15.98;100.00
73085;BME280;62974;49.460;10.892;2022-10-17T09:47:24;98619.31;;;16.11;100.00
73085;BME280;62974;49.460;10.892;2022-10-17T09:49:54;98621.22;;;16.41;100.00
73085;BME280;62974;49.460;10.892;2022-10-17T09:52:24;98620.31;;;16.16;100.00
73085;BME280;62974;49.460;10.892;2022-10-17T09:54:53;98620.03;;;15.86;100.00
73085;BME280;62974;49.460;10.892;2022-10-17T09:57:23;98618.81;;;15.69;100.00
73085;BME280;62974;49.460;10.892;2022-10-17T09:59:55;98614.19;;;16.72;100.00
73085;BME280;62974;49.460;10.892;2022-10-17T10:02:25;98613.03;;;16.10;100.00
73085;BME280;62974;49.460;10.892;2022-10-17T10:04:55;98615.63;;;15.92;100.00
73085;BME280;62974;49.460;10.892;2022-10-17T10:07:32;98615.88;;;15.84;100.00
73085;BME280;62974;49.460;10.892;2022-10-17T10:10:01;98607.34;;;16.25;100.00
73085;BME280;62974;49.460;10.892;2022-10-17T10:12:29;98614.16;;;16.34;100.00
73085;BME280;62974;49.460;10.892;2022-10-17T10:14:58;98617.81;;;16.53;100.00
73085;BME280;62974;49.460;10.892;2022-10-17T10:17:27;98620.91;;;16.56;100.00
73085;BME280;62974;49.460;10.892;2022-10-17T10:19:55;98625.06;;;16.65;98.28
73085;BME280;62974;49.460;10.892;2022-10-17T10:22:22;98619.22;;;16.93;96.36
73085;BME280;62974;49.460;10.892;2022-10-17T10:25:05;98620.25;;;16.67;98.08
73085;BME280;62974;49.460;10.892;2022-10-17T10:27:33;98613.66;;;16.50;99.77
73085;BME280;62974;49.460;10.892;2022-10-17T10:30:00;98619.50;;;17.34;96.10
73085;BME280;62974;49.460;10.892;2022-10-17T10:32:30;98623.59;;;17.44;96.43
73085;BME280;62974;49.460;10.892;2022-10-17T10:34:58;98633.16;;;17.46;95.80
73085;BME280;62974;49.460;10.892;2022-10-17T10:37:27;98618.69;;;17.52;96.75
73085;BME280;62974;49.460;10.892;2022-10-17T10:39:56;98623.16;;;16.97;98.50
73085;BME280;62974;49.460;10.892;2022-10-17T10:42:25;98618.50;;;16.79;100.00
73085;BME280;62974;49.460;10.892;2022-10-17T10:44:56;98613.59;;;17.80;96.01
73085;BME280;62974;49.460;10.892;2022-10-17T10:47:25;98614.25;;;17.15;97.94
73085;BME280;62974;49.460;10.892;2022-10-17T10:50:07;98616.13;;;17.39;98.89
73085;BME280;62974;49.460;10.892;2022-10-17T10:52:37;98618.00;;;17.38;97.34
73085;BME280;62974;49.460;10.892;2022-10-17T10:55:15;98605.59;;;17.86;95.48
73085;BME280;62974;49.460;10.892;2022-10-17T10:57:43;98617.34;;;17.43;97.22
73085;BME280;62974;49.460;10.892;2022-10-17T11:00:13;98606.72;;;17.60;96.45
73085;BME280;62974;49.460;10.892;2022-10-17T11:02:43;98597.19;;;18.05;93.35
73085;BME280;62974;49.460;10.892;2022-10-17T11:05:15;98593.09;;;18.44;92.63
73085;BME280;62974;49.460;10.892;2022-10-17T11:07:48;98590.88;;;18.11;91.91
73085;BME280;62974;49.460;10.892;2022-10-17T11:10:18;98590.94;;;18.53;93.93
73085;BME280;62974;49.460;10.892;2022-10-17T11:12:49;98589.91;;;18.47;92.30
73085;BME280;62974;49.460;10.892;2022-10-17T11:15:19;98591.97;;;18.22;92.37
73085;BME280;62974;49.460;10.892;2022-10-17T11:17:51;98593.78;;;18.40;91.82
73085;BME280;62974;49.460;10.892;2022-10-17T11:20:23;98596.50;;;18.58;91.16
73085;BME280;62974;49.460;10.892;2022-10-17T11:22:54;98593.59;;;18.71;89.65
73085;BME280;62974;49.460;10.892;2022-10-17T11:25:32;98596.25;;;18.29;91.60
73085;BME280;62974;49.460;10.892;2022-10-17T11:28:00;98590.34;;;18.03;92.63
73085;BME280;62974;49.460;10.892;2022-10-17T11:30:45;98597.22;;;17.87;95.12
73085;BME280;62974;49.460;10.892;2022-10-17T11:33:14;98593.75;;;17.80;95.17
73085;BME280;62974;49.460;10.892;2022-10-17T11:35:45;98595.53;;;18.22;93.50
73085;BME280;62974;49.460;10.892;2022-10-17T11:38:14;98594.84;;;18.27;91.57
73085;BME280;62974;49.460;10.892;2022-10-17T11:40:44;98591.41;;;18.02;93.84
73085;BME280;62974;49.460;10.892;2022-10-17T11:43:14;98590.88;;;18.11;93.02
73085;BME280;62974;49.460;10.892;2022-10-17T11:45:44;98594.47;;;18.05;92.72
73085;BME280;62974;49.460;10.892;2022-10-17T11:48:15;98592.25;;;17.66;96.30
73085;BME280;62974;49.460;10.892;2022-10-17T11:50:46;98580.56;;;18.13;93.74
73085;BME280;62974;49.460;10.892;2022-10-17T11:53:43;98586.06;;;17.95;94.77
73085;BME280;62974;49.460;10.892;2022-10-17T11:56:12;98590.66;;;18.84;89.27
73085;BME280;62974;49.460;10.892;2022-10-17T11:58:44;98589.38;;;19.10;85.66
73085;BME280;62974;49.460;10.892;2022-10-17T12:01:19;98589.34;;;18.45;91.43
73085;BME280;62974;49.460;10.892;2022-10-17T12:03:56;98588.09;;;18.59;91.61
73085;BME280;62974;49.460;10.892;2022-10-17T12:06:34;98588.91;;;19.13;87.72
73085;BME280;62974;49.460;10.892;2022-10-17T12:09:06;98589.50;;;19.15;88.62
73085;BME280;62974;49.460;10.892;2022-10-17T12:11:39;98586.19;;;19.13;87.85
73085;BME280;62974;49.460;10.892;2022-10-17T12:16:50;98586.06;;;18.96;88.09
73085;BME280;62974;49.460;10.892;2022-10-17T12:19:28;98580.13;;;19.11;87.04
73085;BME280;62974;49.460;10.892;2022-10-17T12:22:00;98584.34;;;18.72;89.49
73085;BME280;62974;49.460;10.892;2022-10-17T12:24:32;98580.97;;;19.23;85.14
73085;BME280;62974;49.460;10.892;2022-10-17T12:29:46;98572.47;;;19.43;84.65
73085;BME280;62974;49.460;10.892;2022-10-17T12:32:14;98567.50;;;19.51;84.82
73085;BME280;62974;49.460;10.892;2022-10-17T12:34:49;98556.63;;;19.91;83.81
73085;BME280;62974;49.460;10.892;2022-10-17T12:40:00;98544.53;;;19.87;82.31
73085;BME280;62974;49.460;10.892;2022-10-17T12:42:29;98549.44;;;20.13;79.60
73085;BME280;62974;49.460;10.892;2022-10-17T12:44:57;98539.66;;;19.38;85.11
73085;BME280;62974;49.460;10.892;2022-10-17T12:47:28;98551.50;;;19.55;83.90
73085;BME280;62974;49.460;10.892;2022-10-17T12:50:02;98550.41;;;19.67;83.04
73085;BME280;62974;49.460;10.892;2022-10-17T12:55:18;98535.66;;;20.48;76.86
73085;BME280;62974;49.460;10.892;2022-10-17T12:57:47;98536.38;;;19.87;79.71
73085;BME280;62974;49.460;10.892;2022-10-17T13:00:17;98544.00;;;19.74;80.87
73085;BME280;62974;49.460;10.892;2022-10-17T13:02:46;98539.97;;;20.44;77.98
73085;BME280;62974;49.460;10.892;2022-10-17T13:05:15;98547.31;;;19.76;81.75
73085;BME280;62974;49.460;10.892;2022-10-17T13:07:45;98547.13;;;19.54;82.84
73085;BME280;62974;49.460;10.892;2022-10-17T13:10:22;98554.94;;;19.39;84.03
73085;BME280;62974;49.460;10.892;2022-10-17T13:12:59;98553.75;;;19.35;84.47
73085;BME280;62974;49.460;10.892;2022-10-17T13:15:29;98554.94;;;19.39;84.40